createdAt,value
2022-09-21T00:00:47.350Z,90.45
2022-09-21T00:03:13.631Z,83.32
2022-09-21T00:05:39.887Z,78.35
2022-09-21T00:08:06.134Z,75.07
2022-09-21T00:10:32.412Z,70.40
2022-09-21T00:12:58.991Z,85.68
2022-09-21T00:15:25.239Z,65.53
2022-09-21T00:17:51.490Z,81.20
2022-09-21T00:20:17.734Z,85.30
2022-09-21T00:22:44.097Z,75.38
2022-09-21T00:25:10.352Z,80.43
2022-09-21T00:27:36.611Z,76.72
2022-09-21T00:30:03.247Z,74.97
2022-09-21T00:32:31.253Z,77.13
2022-09-21T00:34:57.524Z,80.38
2022-09-21T00:37:23.771Z,86.68
2022-09-21T00:39:50.028Z,96.15
2022-09-21T00:42:16.299Z,93.18
2022-09-21T00:44:42.556Z,94.47
2022-09-21T00:47:09.031Z,96.32
2022-09-21T00:49:35.318Z,104.93
2022-09-21T00:52:02.031Z,95.95
2022-09-21T00:54:28.277Z,98.18
2022-09-21T00:56:54.539Z,95.18
2022-09-21T00:59:21.936Z,100.43
2022-09-21T01:01:49.051Z,96.97
2022-09-21T01:04:15.354Z,83.88
2022-09-21T01:06:41.639Z,73.22
2022-09-21T01:09:07.891Z,68.90
2022-09-21T01:11:34.421Z,67.88
2022-09-21T01:14:00.703Z,74.28
2022-09-21T01:16:27.037Z,70.53
2022-09-21T01:18:53.336Z,73.60
2022-09-21T01:21:19.772Z,92.55
2022-09-21T01:23:46.038Z,102.65
2022-09-21T01:26:12.291Z,126.35
2022-09-21T01:28:38.559Z,113.85
2022-09-21T01:31:05.927Z,117.90
2022-09-21T01:33:32.210Z,104.72
2022-09-21T01:35:58.635Z,108.05
2022-09-21T01:38:24.920Z,102.43
2022-09-21T01:40:51.187Z,100.95
2022-09-21T01:43:17.450Z,98.03
2022-09-21T01:45:43.720Z,94.80
2022-09-21T01:48:10.811Z,95.82
2022-09-21T01:50:36.982Z,87.85
2022-09-21T01:53:03.240Z,80.80
2022-09-21T01:55:29.655Z,88.38
2022-09-21T01:57:55.902Z,102.10
2022-09-21T02:00:22.168Z,107.50
2022-09-21T02:02:48.421Z,125.05
2022-09-21T02:05:16.364Z,119.32
2022-09-21T02:07:42.627Z,95.70
2022-09-21T02:10:08.878Z,117.75
2022-09-21T02:12:35.131Z,111.90
2022-09-21T02:15:01.379Z,98.57
2022-09-21T02:17:27.634Z,70.47
2022-09-21T02:19:54.329Z,67.95
2022-09-21T02:22:20.897Z,71.22
2022-09-21T02:24:47.190Z,69.63
2022-09-21T02:27:13.467Z,71.43
2022-09-21T02:29:39.719Z,66.95
2022-09-21T02:32:06.227Z,71.75
2022-09-21T02:34:33.385Z,74.63
2022-09-21T02:36:59.570Z,66.13
2022-09-21T02:39:25.821Z,77.47
2022-09-21T02:41:52.066Z,77.35
2022-09-21T02:44:18.791Z,97.25
2022-09-21T02:46:45.129Z,57.67
2022-09-21T02:49:11.415Z,64.70
2022-09-21T02:51:37.656Z,58.25
2022-09-21T02:54:03.898Z,54.75
2022-09-21T02:56:30.155Z,68.22
2022-09-21T02:58:56.820Z,67.40
2022-09-21T03:01:23.117Z,72.10
2022-09-21T03:03:49.365Z,71.68
2022-09-21T03:06:15.620Z,64.15
2022-09-21T03:08:41.874Z,60.70
2022-09-21T03:11:08.127Z,56.03
2022-09-21T03:13:34.567Z,73.65
2022-09-21T03:16:00.868Z,55.17
2022-09-21T03:18:27.142Z,62.17
2022-09-21T03:20:53.399Z,63.60
2022-09-21T03:23:19.679Z,59.42
2022-09-21T03:25:46.105Z,52.28
2022-09-21T03:28:13.390Z,52.67
2022-09-21T03:30:39.666Z,56.00
2022-09-21T03:33:06.319Z,54.92
2022-09-21T03:35:33.942Z,55.60
2022-09-21T03:38:00.200Z,59.10
2022-09-21T03:40:29.498Z,53.17
2022-09-21T03:42:55.951Z,51.35
2022-09-21T03:45:22.225Z,53.45
2022-09-21T03:47:48.494Z,60.83
2022-09-21T03:50:14.741Z,62.25
2022-09-21T03:52:40.999Z,64.15
2022-09-21T03:55:07.252Z,65.25
2022-09-21T03:57:34.307Z,61.55
2022-09-21T04:00:00.554Z,60.15
2022-09-21T04:02:27.181Z,71.28
2022-09-21T04:04:53.441Z,58.30
2022-09-21T04:07:19.715Z,57.30
2022-09-21T04:09:45.967Z,56.60
2022-09-21T04:12:12.282Z,68.20
2022-09-21T04:14:38.537Z,60.45
2022-09-21T04:17:04.847Z,55.40
2022-09-21T04:19:31.123Z,60.40
2022-09-21T04:21:57.541Z,54.70
2022-09-21T04:24:23.798Z,63.67
2022-09-21T04:26:50.152Z,63.78
2022-09-21T04:29:16.443Z,64.65
2022-09-21T04:31:42.717Z,61.00
2022-09-21T04:34:08.964Z,57.17
2022-09-21T04:36:36.803Z,51.13
2022-09-21T04:39:03.222Z,47.58
2022-09-21T04:41:29.492Z,59.33
2022-09-21T04:43:55.753Z,54.55
2022-09-21T04:46:22.183Z,52.75
2022-09-21T04:48:48.483Z,52.22
2022-09-21T04:51:14.752Z,52.25
2022-09-21T04:53:42.010Z,50.00
2022-09-21T04:56:08.260Z,51.47
2022-09-21T04:58:34.514Z,54.83
2022-09-21T05:01:00.795Z,54.90
2022-09-21T05:03:27.101Z,54.75
2022-09-21T05:05:56.556Z,53.60
2022-09-21T05:08:42.863Z,50.47
2022-09-21T05:11:09.779Z,64.30
2022-09-21T05:13:36.040Z,53.78
2022-09-21T05:16:02.451Z,53.13
2022-09-21T05:18:29.433Z,65.47
2022-09-21T05:20:56.044Z,61.55
2022-09-21T05:23:22.294Z,64.32
2022-09-21T05:25:48.542Z,65.63
2022-09-21T05:28:14.799Z,69.68
2022-09-21T05:30:56.109Z,78.80
2022-09-21T05:33:27.275Z,77.18
2022-09-21T05:35:54.081Z,77.45
2022-09-21T05:38:20.601Z,69.95
2022-09-21T05:40:50.253Z,60.45
2022-09-21T05:43:16.511Z,67.20
2022-09-21T05:45:47.277Z,79.15
2022-09-21T05:48:14.129Z,74.03
2022-09-21T05:50:40.387Z,68.80
2022-09-21T05:53:06.629Z,65.75
2022-09-21T05:55:32.891Z,75.25
2022-09-21T05:57:59.246Z,75.70
2022-09-21T06:00:25.547Z,73.22
2022-09-21T06:02:51.816Z,71.82
2022-09-21T06:05:18.073Z,76.22
2022-09-21T06:07:44.357Z,81.47
2022-09-21T06:10:10.610Z,89.25
2022-09-21T06:12:36.899Z,90.97
2022-09-21T06:15:03.216Z,75.50
2022-09-21T06:17:29.481Z,77.25
2022-09-21T06:19:55.822Z,78.88
2022-09-21T06:22:22.062Z,80.13
2022-09-21T06:24:48.476Z,74.55
2022-09-21T06:27:14.733Z,71.53
2022-09-21T06:29:40.991Z,60.08
2022-09-21T06:32:07.251Z,60.28
2022-09-21T06:34:36.645Z,59.85
2022-09-21T06:37:03.247Z,60.53
2022-09-21T06:39:29.518Z,55.28
2022-09-21T06:41:56.365Z,69.40
2022-09-21T06:44:22.611Z,51.28
2022-09-21T06:46:48.865Z,60.70
2022-09-21T06:49:15.140Z,66.90
2022-09-21T06:51:41.391Z,62.15
2022-09-21T06:54:07.691Z,86.35
2022-09-21T06:56:34.043Z,59.70
2022-09-21T06:59:00.326Z,53.92
2022-09-21T07:01:26.661Z,71.63
2022-09-21T07:03:53.977Z,111.18
2022-09-21T07:06:20.374Z,116.43
2022-09-21T07:11:32.930Z,134.18
2022-09-21T07:13:59.742Z,200.15
2022-09-21T07:16:26.114Z,151.13
2022-09-21T07:18:52.419Z,147.43
2022-09-21T07:21:18.680Z,143.98
2022-09-21T07:23:45.027Z,132.50
2022-09-21T07:26:11.283Z,90.72
2022-09-21T07:28:37.537Z,71.50
2022-09-21T07:31:03.798Z,101.80
2022-09-21T07:33:36.017Z,118.75
2022-09-21T07:36:03.942Z,110.57
2022-09-21T07:38:30.196Z,138.80
2022-09-21T07:40:56.464Z,71.03
2022-09-21T07:43:22.730Z,83.68
2022-09-21T07:45:49.111Z,87.68
2022-09-21T07:48:15.380Z,71.03
2022-09-21T07:50:42.015Z,74.60
2022-09-21T07:53:08.282Z,78.68
2022-09-21T07:55:34.604Z,80.90
2022-09-21T07:58:19.616Z,75.13
2022-09-21T08:00:45.998Z,70.57
2022-09-21T08:03:12.772Z,69.18
2022-09-21T08:05:39.032Z,69.43
2022-09-21T08:08:05.278Z,116.80
2022-09-21T08:10:32.721Z,116.15
2022-09-21T08:12:59.062Z,114.55
2022-09-21T08:15:47.565Z,162.95
2022-09-21T08:18:11.883Z,190.55
2022-09-21T08:20:38.757Z,168.35
2022-09-21T08:23:04.999Z,173.25
2022-09-21T08:25:31.475Z,158.80
2022-09-21T08:27:58.157Z,102.05
2022-09-21T08:30:27.857Z,118.22
2022-09-21T08:32:54.192Z,122.65
2022-09-21T08:35:20.471Z,96.60
2022-09-21T08:37:46.722Z,88.43
2022-09-21T08:40:15.076Z,87.68
2022-09-21T08:42:41.414Z,87.65
2022-09-21T08:45:10.022Z,85.25
2022-09-21T08:47:36.294Z,75.85
2022-09-21T08:50:02.550Z,68.65
2022-09-21T08:52:28.831Z,71.97
2022-09-21T08:54:55.085Z,63.55
2022-09-21T08:57:21.456Z,77.03
2022-09-21T08:59:47.757Z,70.95
2022-09-21T09:02:14.210Z,74.68
2022-09-21T09:04:40.564Z,68.70
2022-09-21T09:07:06.839Z,76.35
2022-09-21T09:09:33.099Z,102.03
2022-09-21T09:11:59.368Z,90.40
2022-09-21T09:14:25.940Z,88.97
2022-09-21T09:16:52.204Z,106.05
2022-09-21T09:19:18.457Z,78.28
2022-09-21T09:21:44.731Z,107.70
2022-09-21T09:24:11.021Z,74.00
2022-09-21T09:26:37.466Z,90.43
2022-09-21T09:29:03.727Z,95.75
2022-09-21T09:31:30.170Z,103.95
2022-09-21T09:33:56.912Z,100.32
2022-09-21T09:36:46.549Z,114.55
2022-09-21T09:39:11.862Z,141.18
2022-09-21T09:41:38.150Z,88.78
2022-09-21T09:44:04.410Z,88.68
2022-09-21T09:46:31.249Z,69.25
2022-09-21T09:48:57.671Z,63.75
2022-09-21T09:51:23.928Z,68.50
2022-09-21T09:53:50.571Z,76.55
2022-09-21T09:56:16.819Z,68.70
2022-09-21T09:58:43.071Z,66.65
2022-09-21T10:01:09.330Z,63.03
2022-09-21T10:03:36.134Z,60.60
2022-09-21T10:06:02.386Z,75.13
2022-09-21T10:08:28.746Z,81.50
2022-09-21T10:10:55.007Z,73.97
2022-09-21T10:13:21.250Z,60.60
2022-09-21T10:15:47.732Z,65.93
2022-09-21T10:18:14.021Z,78.75
2022-09-21T10:20:40.283Z,111.90
2022-09-21T10:23:06.554Z,111.65
2022-09-21T10:25:36.855Z,155.52
2022-09-21T10:28:05.979Z,92.47
2022-09-21T10:30:32.315Z,84.38
2022-09-21T10:32:58.566Z,113.55
2022-09-21T10:35:25.092Z,96.20
2022-09-21T10:37:54.370Z,112.47
2022-09-21T10:40:20.785Z,104.90
2022-09-21T10:42:47.113Z,78.30
2022-09-21T10:45:14.507Z,92.93
2022-09-21T10:47:40.805Z,93.30
2022-09-21T10:50:07.055Z,89.50
2022-09-21T10:52:33.311Z,102.93
2022-09-21T10:54:59.566Z,120.43
2022-09-21T10:57:25.893Z,126.35
2022-09-21T10:59:52.181Z,97.53
2022-09-21T11:02:18.487Z,103.75
2022-09-21T11:04:44.787Z,81.78
2022-09-21T11:07:11.062Z,74.28
2022-09-21T11:09:37.325Z,75.05
2022-09-21T11:12:04.315Z,85.43
2022-09-21T11:14:30.575Z,163.90
2022-09-21T11:16:56.849Z,118.20
2022-09-21T11:19:23.095Z,186.30
2022-09-21T11:21:49.344Z,169.57
2022-09-21T11:24:15.594Z,171.32
2022-09-21T11:29:13.359Z,162.20
2022-09-21T11:31:39.683Z,174.93
2022-09-21T11:34:06.046Z,78.15
2022-09-21T11:36:32.449Z,67.85
2022-09-21T11:38:58.701Z,149.13
2022-09-21T11:41:24.976Z,135.57
2022-09-21T11:43:51.315Z,114.18
2022-09-21T11:46:17.660Z,132.95
2022-09-21T11:48:43.955Z,98.10
2022-09-21T11:51:10.208Z,116.25
2022-09-21T11:53:37.004Z,103.82
2022-09-21T11:56:03.536Z,107.35
2022-09-21T11:58:29.843Z,129.23
2022-09-21T12:00:58.194Z,120.53
2022-09-21T12:03:24.471Z,106.47
2022-09-21T12:05:50.824Z,96.63
2022-09-21T12:08:17.116Z,95.25
2022-09-21T12:10:43.458Z,102.60
2022-09-21T12:13:09.741Z,137.85
2022-09-21T12:15:36.003Z,139.68
2022-09-21T12:18:02.262Z,132.00
2022-09-21T12:20:28.539Z,118.78
2022-09-21T12:22:54.803Z,119.60
2022-09-21T12:25:21.418Z,108.35
2022-09-21T12:27:47.680Z,121.15
2022-09-21T12:30:13.963Z,138.13
2022-09-21T12:32:40.224Z,185.98
2022-09-21T12:35:06.629Z,158.13
2022-09-21T12:37:32.882Z,156.18
2022-09-21T12:39:59.238Z,202.65
2022-09-21T12:42:25.558Z,175.70
2022-09-21T12:44:52.221Z,125.35
2022-09-21T12:47:18.706Z,148.90
2022-09-21T12:49:44.969Z,147.63
2022-09-21T12:52:11.227Z,219.10
2022-09-21T12:54:37.925Z,178.40
2022-09-21T12:57:23.487Z,204.45
2022-09-21T12:59:50.564Z,164.35
2022-09-21T13:02:17.353Z,147.88
2022-09-21T13:04:43.736Z,155.68
2022-09-21T13:07:09.993Z,205.32
2022-09-21T13:09:36.242Z,191.77
2022-09-21T13:12:04.247Z,143.82
2022-09-21T13:16:57.617Z,194.15
2022-09-21T13:19:23.867Z,209.40
2022-09-21T13:21:50.302Z,185.55
2022-09-21T13:24:16.590Z,140.60
2022-09-21T13:26:42.849Z,111.22
2022-09-21T13:29:09.684Z,104.75
2022-09-21T13:31:40.893Z,126.00
2022-09-21T13:34:08.900Z,109.45
2022-09-21T13:36:35.250Z,123.75
2022-09-21T13:39:01.507Z,145.35
2022-09-21T13:41:45.533Z,240.63
2022-09-21T13:44:14.026Z,249.00
2022-09-21T13:46:40.283Z,218.65
2022-09-21T13:49:06.546Z,169.50
2022-09-21T13:51:33.237Z,169.05
2022-09-21T13:54:00.463Z,147.27
2022-09-21T13:56:26.710Z,152.38
2022-09-21T13:58:52.987Z,129.15
2022-09-21T14:01:45.076Z,208.02
2022-09-21T14:04:06.559Z,200.10
2022-09-21T14:06:35.108Z,146.48
2022-09-21T14:09:01.376Z,113.22
2022-09-21T14:11:28.001Z,142.68
2022-09-21T14:13:54.480Z,140.00
2022-09-21T14:16:20.843Z,120.63
2022-09-21T14:18:47.323Z,148.82
2022-09-21T14:21:22.387Z,144.85
2022-09-21T14:23:48.637Z,92.25
2022-09-21T14:26:14.895Z,126.97
2022-09-21T14:28:41.166Z,220.02
2022-09-21T14:31:07.464Z,199.75
2022-09-21T14:33:33.767Z,115.20
2022-09-21T14:36:01.755Z,154.57
2022-09-21T14:40:54.421Z,78.78
2022-09-21T14:43:23.664Z,115.80
2022-09-21T14:45:50.320Z,114.50
2022-09-21T14:48:16.584Z,89.20
2022-09-21T14:50:43.060Z,97.82
2022-09-21T14:53:09.470Z,99.25
2022-09-21T14:55:35.718Z,118.78
2022-09-21T14:58:01.983Z,138.63
2022-09-21T15:00:28.247Z,106.13
2022-09-21T15:02:54.677Z,97.32
2022-09-21T15:05:20.941Z,93.07
2022-09-21T15:08:06.155Z,132.80
2022-09-21T15:10:54.528Z,120.80
2022-09-21T15:13:21.795Z,103.47
2022-09-21T15:15:48.133Z,143.90
2022-09-21T15:18:20.267Z,132.70
2022-09-21T15:20:48.163Z,108.50
2022-09-21T15:23:14.464Z,89.95
2022-09-21T15:25:40.725Z,83.90
2022-09-21T15:28:07.392Z,99.63
2022-09-21T15:30:33.675Z,129.18
2022-09-21T15:32:59.942Z,151.43
2022-09-21T15:35:27.680Z,153.60
2022-09-21T15:37:53.964Z,169.55
2022-09-21T15:40:20.614Z,164.18
2022-09-21T15:42:46.935Z,151.73
2022-09-21T15:45:13.186Z,185.43
2022-09-21T15:47:42.178Z,197.65
2022-09-21T15:50:09.167Z,192.63
2022-09-21T15:52:36.089Z,226.05
2022-09-21T15:55:02.783Z,158.95
2022-09-21T15:57:29.043Z,136.65
2022-09-21T15:59:56.078Z,140.73
2022-09-21T16:02:22.268Z,154.63
2022-09-21T16:04:52.456Z,137.55
2022-09-21T16:07:18.710Z,129.18
2022-09-21T16:09:47.923Z,114.68
2022-09-21T16:12:14.240Z,112.55
2022-09-21T16:14:55.908Z,109.03
2022-09-21T16:17:22.295Z,108.13
2022-09-21T16:19:49.609Z,115.75
2022-09-21T16:22:15.885Z,119.45
2022-09-21T16:24:42.163Z,134.07
2022-09-21T16:27:08.405Z,142.05
2022-09-21T16:29:34.677Z,106.93
2022-09-21T16:32:00.997Z,103.00
2022-09-21T16:34:27.293Z,108.65
2022-09-21T16:36:54.626Z,103.93
2022-09-21T16:39:22.642Z,102.30
2022-09-21T16:41:48.903Z,129.73
2022-09-21T16:44:19.625Z,129.75
2022-09-21T16:46:46.121Z,121.60
2022-09-21T16:49:15.346Z,106.55
2022-09-21T16:51:41.618Z,102.00
2022-09-21T16:54:08.474Z,100.53
2022-09-21T16:56:34.910Z,102.55
2022-09-21T16:59:03.863Z,118.93
2022-09-21T17:01:30.153Z,120.45
2022-09-21T17:03:56.718Z,120.43
2022-09-21T17:06:22.970Z,129.13
2022-09-21T17:08:49.282Z,127.50
2022-09-21T17:11:19.717Z,125.47
2022-09-21T17:13:45.988Z,119.35
2022-09-21T17:16:12.284Z,122.22
2022-09-21T17:18:38.937Z,122.75
2022-09-21T17:21:05.241Z,129.88
2022-09-21T17:23:31.523Z,123.70
2022-09-21T17:25:57.822Z,122.07
2022-09-21T17:28:25.942Z,121.88
2022-09-21T17:33:19.801Z,105.13
2022-09-21T17:35:46.061Z,115.53
2022-09-21T17:38:14.526Z,108.85
2022-09-21T17:40:42.780Z,117.95
2022-09-21T17:43:11.878Z,128.75
2022-09-21T17:45:38.712Z,118.28
2022-09-21T17:48:04.971Z,126.15
2022-09-21T17:50:31.490Z,141.02
2022-09-21T17:53:16.258Z,136.43
2022-09-21T17:55:42.506Z,81.63
2022-09-21T17:58:09.812Z,72.82
2022-09-21T18:00:36.077Z,58.78
2022-09-21T18:03:02.699Z,61.45
2022-09-21T18:05:29.086Z,56.47
2022-09-21T18:07:55.336Z,58.60
2022-09-21T18:10:21.580Z,64.18
2022-09-21T18:12:48.757Z,65.88
2022-09-21T18:15:15.592Z,64.90
2022-09-21T18:17:41.838Z,72.65
2022-09-21T18:20:08.168Z,70.60
2022-09-21T18:22:37.260Z,69.25
2022-09-21T18:25:03.530Z,62.42
2022-09-21T18:27:32.942Z,59.85
2022-09-21T18:29:59.202Z,60.85
2022-09-21T18:32:25.462Z,61.58
2022-09-21T18:34:51.958Z,66.45
2022-09-21T18:37:18.661Z,82.82
2022-09-21T18:39:44.917Z,112.30
2022-09-21T18:42:11.175Z,112.55
2022-09-21T18:44:37.433Z,113.05
2022-09-21T18:47:03.845Z,111.53
2022-09-21T18:49:31.322Z,100.65
2022-09-21T18:51:57.859Z,90.80
2022-09-21T18:54:24.215Z,73.95
2022-09-21T18:56:50.489Z,71.93
2022-09-21T18:59:17.187Z,67.95
2022-09-21T19:01:43.568Z,67.28
2022-09-21T19:04:09.896Z,74.85
2022-09-21T19:06:37.472Z,107.03
2022-09-21T19:09:03.748Z,109.75
2022-09-21T19:11:32.094Z,87.03
2022-09-21T19:13:58.342Z,75.97
2022-09-21T19:16:24.623Z,72.10
2022-09-21T19:18:51.504Z,66.97
2022-09-21T19:21:17.759Z,66.85
2022-09-21T19:23:44.009Z,61.72
2022-09-21T19:26:12.018Z,60.50
2022-09-21T19:31:07.860Z,57.63
2022-09-21T19:33:51.014Z,60.88
2022-09-21T19:36:17.705Z,64.53
2022-09-21T19:38:43.992Z,73.57
2022-09-21T19:41:10.307Z,84.55
2022-09-21T19:43:36.569Z,71.80
2022-09-21T19:46:04.951Z,66.45
2022-09-21T19:48:31.279Z,61.47
2022-09-21T19:50:58.794Z,61.63
2022-09-21T19:53:43.849Z,61.50
2022-09-21T19:56:28.577Z,65.40
2022-09-21T19:59:13.346Z,62.38
2022-09-21T20:01:42.087Z,64.05
2022-09-21T20:04:08.386Z,58.22
2022-09-21T20:06:35.554Z,58.53
2022-09-21T20:09:03.087Z,98.93
2022-09-21T20:11:29.679Z,108.60
2022-09-21T20:13:56.338Z,75.43
2022-09-21T20:16:22.972Z,129.15
2022-09-21T20:18:49.879Z,147.80
2022-09-21T20:21:16.236Z,117.10
2022-09-21T20:23:42.482Z,124.05
2022-09-21T20:26:08.745Z,128.60
2022-09-21T20:28:35.879Z,114.78
2022-09-21T20:31:02.131Z,110.50
2022-09-21T20:33:28.432Z,150.77
2022-09-21T20:35:55.812Z,159.35
2022-09-21T20:38:23.009Z,167.73
2022-09-21T20:40:49.233Z,142.43
2022-09-21T20:43:15.852Z,147.98
2022-09-21T20:45:48.006Z,170.07
2022-09-21T20:48:14.435Z,79.22
2022-09-21T20:50:40.688Z,72.28
2022-09-21T20:53:07.735Z,90.35
2022-09-21T20:55:33.991Z,83.93
2022-09-21T21:00:53.048Z,119.25
2022-09-21T21:03:21.476Z,80.65
2022-09-21T21:05:47.740Z,77.78
2022-09-21T21:08:13.990Z,116.63
2022-09-21T21:10:40.379Z,160.70
2022-09-21T21:13:06.626Z,194.57
2022-09-21T21:15:32.902Z,230.32
2022-09-21T21:17:59.159Z,238.73
2022-09-21T21:20:25.646Z,234.52
2022-09-21T21:22:51.994Z,265.00
2022-09-21T21:25:18.281Z,288.92
2022-09-21T21:27:44.544Z,306.58
2022-09-21T21:30:11.256Z,178.00
2022-09-21T21:32:37.531Z,104.80
2022-09-21T21:35:03.819Z,94.45
2022-09-21T21:37:30.071Z,120.10
2022-09-21T21:39:56.907Z,122.90
2022-09-21T21:42:24.729Z,172.48
2022-09-21T21:44:51.035Z,222.35
2022-09-21T21:50:03.706Z,194.20
2022-09-21T21:52:30.309Z,160.32
2022-09-21T21:54:56.591Z,128.02
2022-09-21T21:57:22.842Z,151.80
2022-09-21T21:59:49.096Z,130.65
2022-09-21T22:02:15.644Z,123.57
2022-09-21T22:04:42.091Z,111.18
2022-09-21T22:07:08.360Z,100.47
2022-09-21T22:09:34.620Z,102.85
2022-09-21T22:12:01.851Z,110.70
2022-09-21T22:14:28.247Z,102.00
2022-09-21T22:16:54.616Z,111.88
2022-09-21T22:19:20.975Z,107.18
2022-09-21T22:21:51.721Z,99.72
2022-09-21T22:24:21.066Z,96.70
2022-09-21T22:26:48.436Z,104.57
2022-09-21T22:29:14.727Z,101.07
2022-09-21T22:31:41.187Z,92.40
2022-09-21T22:34:08.970Z,82.47
2022-09-21T22:36:35.312Z,94.70
2022-09-21T22:39:01.630Z,98.10
2022-09-21T22:41:27.883Z,98.18
2022-09-21T22:43:54.139Z,94.97
2022-09-21T22:46:20.398Z,102.15
2022-09-21T22:48:46.827Z,105.60
2022-09-21T22:51:13.081Z,109.75
2022-09-21T22:53:39.330Z,98.70
2022-09-21T22:56:05.578Z,103.90
2022-09-21T22:58:31.851Z,107.90
2022-09-21T23:00:58.116Z,107.38
2022-09-21T23:03:24.391Z,98.38
2022-09-21T23:05:50.637Z,97.55
2022-09-21T23:08:16.895Z,105.45
2022-09-21T23:10:43.155Z,96.85
2022-09-21T23:13:09.396Z,106.90
2022-09-21T23:15:35.663Z,106.90
2022-09-21T23:18:02.052Z,108.93
2022-09-21T23:20:28.310Z,108.88
2022-09-21T23:22:54.596Z,95.43
2022-09-21T23:25:20.883Z,85.18
2022-09-21T23:27:47.135Z,79.57
2022-09-21T23:30:13.404Z,75.90
2022-09-21T23:32:39.646Z,75.75
2022-09-21T23:35:05.899Z,72.82
2022-09-21T23:37:32.158Z,65.10
2022-09-21T23:39:58.734Z,69.38
2022-09-21T23:42:24.974Z,64.10
2022-09-21T23:44:51.231Z,65.07
2022-09-21T23:47:17.487Z,67.47
2022-09-21T23:49:43.744Z,67.45
2022-09-21T23:52:10.009Z,67.45
2022-09-21T23:54:36.602Z,70.88
2022-09-21T23:57:02.918Z,69.97
2022-09-21T23:59:29.171Z,69.13
